NCAR-RAP Real-Time Weather Data

Output produced by METARs form (23 July 2019  22:21 UTC)
found at http://weather.rap.ucar.edu/surface/
 
KMKE 232152Z 06008KT 10SM FEW055TCU SCT080 23/13 A3009 RMK AO2 SLP185 TCU SW-N T02330133
KMKE 232052Z 05009KT 10SM SCT060TCU SCT075 23/14 A3009 RMK AO2 SLP186 TCU SW-W T02330144 58003
KMKE 231952Z 06007KT 10SM FEW060 24/15 A3009 RMK AO2 SLP187 T02390150
KMKE 231852Z 03008KT 10SM FEW049 SCT060 24/15 A3010 RMK AO2 SLP187 T02390150
KMKE 231752Z 06007KT 10SM SCT050 24/15 A3010 RMK AO2 SLP188 T02390150 10239 20189 58001
KMKE 231652Z 06009KT 10SM FEW038 24/16 A3010 RMK AO2 SLP189 T02390156
KMKE 231552Z 02008KT 10SM FEW080 23/16 A3010 RMK AO2 SLP190 T02280161
KMKE 231452Z 32008KT 10SM SCT080 23/14 A3010 RMK AO2 SLP189 T02280144 50001
KMKE 231352Z 29010KT 10SM SCT095 SCT130 22/14 A3010 RMK AO2 SLP191 T02170139
KMKE 231252Z 29007KT 10SM FEW070 BKN130 20/13 A3010 RMK AO2 SLP190 T02000133
KMKE 231152Z 29006KT 10SM FEW050 SCT065 19/13 A3010 RMK AO2 SLP189 T01890133 10200 20167 51005
KMKE 231052Z 29005KT 10SM FEW070 18/12 A3009 RMK AO2 SLP188 T01780122
KMKE 230952Z 30005KT 10SM FEW250 18/12 A3009 RMK AO2 SLP186 T01780122
KMKE 230852Z 30005KT 10SM CLR 18/12 A3008 RMK AO2 SLP184 T01830117 53000
KMKE 230752Z 31005KT 10SM CLR 19/12 A3008 RMK AO2 SLP182 T01890117
KMKE 230652Z 30007KT 10SM FEW075 20/11 A3008 RMK AO2 SLP183 T02000111
KMKE 230552Z 30008KT 10SM FEW075 20/09 A3008 RMK AO2 SLP184 T02000094 10217 20189 402280172 56003
KMKE 230452Z 27005KT 10SM FEW075 21/09 A3008 RMK AO2 SLP183 T02060094
KMKE 230352Z 27004KT 10SM SCT070 21/10 A3008 RMK AO2 SLP185 T02060100
KMKE 230252Z 00000KT 10SM CLR 21/10 A3009 RMK AO2 SLP186 T02060100 53001
KMKE 230152Z 00000KT 10SM CLR 19/08 A3008 RMK AO2 SLP185 T01940083